<?xml version="1.0" encoding="UTF-8"?>
<gpx  version="1.1"  creator="Verlag Esterbauer" xmlns:xsi="http://www.w3.org/2001/XMLSchema-instance" xmlns="http://www.topografix.com/GPX/1/1"  xsi:schemaLocation="http://www.topografix.com/GPX/1/1 http://www.topografix.com/GPX/1/1/gpx.xsd">
<trk>
  <name>wf-gran_T16</name>
  <trkseg>
    <trkpt lat="28.077139" lon="-15.576025">
    <time>1971-01-13T12:01:19Z</time>
    </trkpt>
    <trkpt lat="28.076875" lon="-15.576079">
    <time>1971-01-13T12:01:46Z</time>
  <cmt>extensions = 1.49</cmt>
    </trkpt>
    <trkpt lat="28.076805" lon="-15.576183">
    <time>1971-01-13T12:01:57Z</time>
  <cmt>extensions = 1.17</cmt>
    </trkpt>
    <trkpt lat="28.076757" lon="-15.576344">
    <time>1971-01-13T12:02:12Z</time>
  <cmt>extensions = 2.38</cmt>
    </trkpt>
    <trkpt lat="28.076768" lon="-15.576821">
    <time>1971-01-13T12:02:54Z</time>
  <cmt>extensions = 1.63</cmt>
    </trkpt>
    <trkpt lat="28.076726" lon="-15.576782">
    <time>1971-01-13T12:03:00Z</time>
  <cmt>extensions = 1.40</cmt>
    </trkpt>
    <trkpt lat="28.076651" lon="-15.576591">
    <time>1971-01-13T12:03:18Z</time>
  <cmt>extensions = 2.93</cmt>
    </trkpt>
    <trkpt lat="28.076471" lon="-15.576436">
    <time>1971-01-13T12:03:41Z</time>
  <cmt>extensions = 3.15</cmt>
    </trkpt>
    <trkpt lat="28.07642" lon="-15.576423">
    <time>1971-01-13T12:03:46Z</time>
  <cmt>extensions = 2.91</cmt>
    </trkpt>
    <trkpt lat="28.076241" lon="-15.576563">
    <time>1971-01-13T12:04:08Z</time>
  <cmt>extensions = 6.05</cmt>
    </trkpt>
    <trkpt lat="28.075483" lon="-15.577421">
    <time>1971-01-13T12:05:55Z</time>
  <cmt>extensions = 12.50</cmt>
    </trkpt>
    <trkpt lat="28.07516" lon="-15.577684">
    <time>1971-01-13T12:06:35Z</time>
  <cmt>extensions = 11.07</cmt>
    </trkpt>
    <trkpt lat="28.074976" lon="-15.577784">
    <time>1971-01-13T12:06:55Z</time>
  <cmt>extensions = 11.36</cmt>
    </trkpt>
    <trkpt lat="28.074419" lon="-15.577943">
    <time>1971-01-13T12:07:52Z</time>
  <cmt>extensions = 12.79</cmt>
    </trkpt>
    <trkpt lat="28.074091" lon="-15.577962">
    <time>1971-01-13T12:08:25Z</time>
  <cmt>extensions = 12.19</cmt>
    </trkpt>
    <trkpt lat="28.073861" lon="-15.57813">
    <time>1971-01-13T12:08:52Z</time>
  <cmt>extensions = 7.62</cmt>
    </trkpt>
    <trkpt lat="28.073702" lon="-15.578373">
    <time>1971-01-13T12:09:19Z</time>
  <cmt>extensions = 9.91</cmt>
    </trkpt>
    <trkpt lat="28.073534" lon="-15.578834">
    <time>1971-01-13T12:10:03Z</time>
  <cmt>extensions = 9.80</cmt>
    </trkpt>
    <trkpt lat="28.073573" lon="-15.579085">
    <time>1971-01-13T12:10:26Z</time>
  <cmt>extensions = 8.34</cmt>
    </trkpt>
    <trkpt lat="28.073621" lon="-15.579234">
    <time>1971-01-13T12:10:40Z</time>
  <cmt>extensions = 7.79</cmt>
    </trkpt>
    <trkpt lat="28.073927" lon="-15.57988">
    <time>1971-01-13T12:11:45Z</time>
  <cmt>extensions = 5.77</cmt>
    </trkpt>
    <trkpt lat="28.07391" lon="-15.580059">
    <time>1971-01-13T12:12:00Z</time>
  <cmt>extensions = 5.89</cmt>
    </trkpt>
    <trkpt lat="28.073883" lon="-15.580189">
    <time>1971-01-13T12:12:12Z</time>
  <cmt>extensions = 6.56</cmt>
    </trkpt>
    <trkpt lat="28.074041" lon="-15.580985">
    <time>1971-01-13T12:13:24Z</time>
  <cmt>extensions = 8.68</cmt>
    </trkpt>
    <trkpt lat="28.073954" lon="-15.581412">
    <time>1971-01-13T12:14:03Z</time>
  <cmt>extensions = 8.61</cmt>
    </trkpt>
    <trkpt lat="28.07382" lon="-15.581676">
    <time>1971-01-13T12:14:30Z</time>
  <cmt>extensions = 7.48</cmt>
    </trkpt>
    <trkpt lat="28.073664" lon="-15.582255">
    <time>1971-01-13T12:15:24Z</time>
  <cmt>extensions = 9.25</cmt>
    </trkpt>
    <trkpt lat="28.073576" lon="-15.583074">
    <time>1971-01-13T12:16:37Z</time>
  <cmt>extensions = 5.93</cmt>
    </trkpt>
    <trkpt lat="28.073516" lon="-15.583011">
    <time>1971-01-13T12:16:45Z</time>
  <cmt>extensions = 0.08</cmt>
    </trkpt>
    <trkpt lat="28.073595" lon="-15.583092">
    <time>1971-01-13T12:16:55Z</time>
  <cmt>extensions = 0.08</cmt>
    </trkpt>
    <trkpt lat="28.073561" lon="-15.583014">
    <time>1971-01-13T12:17:03Z</time>
  <cmt>extensions = 0.03</cmt>
    </trkpt>
    <trkpt lat="28.073709" lon="-15.58306">
    <time>1971-01-13T12:17:18Z</time>
  <cmt>extensions = 0.43</cmt>
    </trkpt>
    <trkpt lat="28.073622" lon="-15.58302">
    <time>1971-01-13T12:17:28Z</time>
  <cmt>extensions = 0.22</cmt>
    </trkpt>
    <trkpt lat="28.073694" lon="-15.582899">
    <time>1971-01-13T12:17:41Z</time>
  <cmt>extensions = 1.21</cmt>
    </trkpt>
    <trkpt lat="28.073705" lon="-15.582831">
    <time>1971-01-13T12:17:47Z</time>
  <cmt>extensions = 1.36</cmt>
    </trkpt>
    <trkpt lat="28.073738" lon="-15.58288">
    <time>1971-01-13T12:17:52Z</time>
  <cmt>extensions = 0.50</cmt>
    </trkpt>
    <trkpt lat="28.073852" lon="-15.582925">
    <time>1971-01-13T12:18:04Z</time>
  <cmt>extensions = 1.21</cmt>
    </trkpt>
    <trkpt lat="28.073996" lon="-15.583068">
    <time>1971-01-13T12:18:23Z</time>
  <cmt>extensions = 1.24</cmt>
    </trkpt>
    <trkpt lat="28.07411" lon="-15.583139">
    <time>1971-01-13T12:18:36Z</time>
  <cmt>extensions = 1.03</cmt>
    </trkpt>
    <trkpt lat="28.074211" lon="-15.583068">
    <time>1971-01-13T12:18:48Z</time>
  <cmt>extensions = 0.74</cmt>
    </trkpt>
    <trkpt lat="28.074259" lon="-15.583028">
    <time>1971-01-13T12:18:54Z</time>
  <cmt>extensions = 0.33</cmt>
    </trkpt>
    <trkpt lat="28.074385" lon="-15.583024">
    <time>1971-01-13T12:19:07Z</time>
  <cmt>extensions = 0.77</cmt>
    </trkpt>
    <trkpt lat="28.074434" lon="-15.58298">
    <time>1971-01-13T12:19:13Z</time>
  <cmt>extensions = 0.54</cmt>
    </trkpt>
    <trkpt lat="28.07454" lon="-15.582986">
    <time>1971-01-13T12:19:23Z</time>
  <cmt>extensions = 0.84</cmt>
    </trkpt>
    <trkpt lat="28.074665" lon="-15.583039">
    <time>1971-01-13T12:19:37Z</time>
  <cmt>extensions = 0.99</cmt>
    </trkpt>
    <trkpt lat="28.074792" lon="-15.583033">
    <time>1971-01-13T12:19:49Z</time>
  <cmt>extensions = 0.94</cmt>
    </trkpt>
    <trkpt lat="28.074868" lon="-15.583012">
    <time>1971-01-13T12:19:57Z</time>
  <cmt>extensions = 0.67</cmt>
    </trkpt>
    <trkpt lat="28.074883" lon="-15.582928">
    <time>1971-01-13T12:20:05Z</time>
  <cmt>extensions = 0.53</cmt>
    </trkpt>
    <trkpt lat="28.074885" lon="-15.582822">
    <time>1971-01-13T12:20:14Z</time>
  <cmt>extensions = 0.80</cmt>
    </trkpt>
    <trkpt lat="28.07493" lon="-15.582779">
    <time>1971-01-13T12:20:20Z</time>
  <cmt>extensions = 0.44</cmt>
    </trkpt>
    <trkpt lat="28.074976" lon="-15.582755">
    <time>1971-01-13T12:20:25Z</time>
  <cmt>extensions = 1.13</cmt>
    </trkpt>
    <trkpt lat="28.075032" lon="-15.582686">
    <time>1971-01-13T12:20:33Z</time>
  <cmt>extensions = 1.02</cmt>
    </trkpt>
    <trkpt lat="28.075082" lon="-15.582761">
    <time>1971-01-13T12:20:42Z</time>
  <cmt>extensions = 0.77</cmt>
    </trkpt>
    <trkpt lat="28.075071" lon="-15.582892">
    <time>1971-01-13T12:20:53Z</time>
  <cmt>extensions = 0.81</cmt>
    </trkpt>
    <trkpt lat="28.075155" lon="-15.582969">
    <time>1971-01-13T12:21:04Z</time>
  <cmt>extensions = 0.69</cmt>
    </trkpt>
    <trkpt lat="28.075177" lon="-15.583067">
    <time>1971-01-13T12:21:13Z</time>
  <cmt>extensions = 0.83</cmt>
    </trkpt>
    <trkpt lat="28.075212" lon="-15.583172">
    <time>1971-01-13T12:21:23Z</time>
  <cmt>extensions = 1.00</cmt>
    </trkpt>
    <trkpt lat="28.075262" lon="-15.583132">
    <time>1971-01-13T12:21:29Z</time>
  <cmt>extensions = 0.57</cmt>
    </trkpt>
    <trkpt lat="28.075253" lon="-15.583015">
    <time>1971-01-13T12:21:39Z</time>
  <cmt>extensions = 0.62</cmt>
    </trkpt>
    <trkpt lat="28.075263" lon="-15.582909">
    <time>1971-01-13T12:21:49Z</time>
  <cmt>extensions = 0.29</cmt>
    </trkpt>
    <trkpt lat="28.075218" lon="-15.582385">
    <time>1971-01-13T12:22:35Z</time>
  <cmt>extensions = 1.30</cmt>
    </trkpt>
    <trkpt lat="28.075357" lon="-15.582247">
    <time>1971-01-13T12:22:54Z</time>
  <cmt>extensions = 1.06</cmt>
    </trkpt>
    <trkpt lat="28.075417" lon="-15.58218">
    <time>1971-01-13T12:23:02Z</time>
  <cmt>extensions = 0.94</cmt>
    </trkpt>
    <trkpt lat="28.0754" lon="-15.582119">
    <time>1971-01-13T12:23:08Z</time>
  <cmt>extensions = 2.09</cmt>
    </trkpt>
    <trkpt lat="28.07546" lon="-15.581997">
    <time>1971-01-13T12:23:20Z</time>
  <cmt>extensions = 1.14</cmt>
    </trkpt>
    <trkpt lat="28.075541" lon="-15.5819">
    <time>1971-01-13T12:23:32Z</time>
  <cmt>extensions = 1.19</cmt>
    </trkpt>
    <trkpt lat="28.075569" lon="-15.581851">
    <time>1971-01-13T12:23:37Z</time>
  <cmt>extensions = 1.15</cmt>
    </trkpt>
    <trkpt lat="28.075542" lon="-15.581613">
    <time>1971-01-13T12:23:58Z</time>
  <cmt>extensions = 1.68</cmt>
    </trkpt>
    <trkpt lat="28.075573" lon="-15.581515">
    <time>1971-01-13T12:24:07Z</time>
  <cmt>extensions = 1.28</cmt>
    </trkpt>
    <trkpt lat="28.075534" lon="-15.581363">
    <time>1971-01-13T12:24:21Z</time>
  <cmt>extensions = 0.92</cmt>
    </trkpt>
    <trkpt lat="28.075457" lon="-15.581171">
    <time>1971-01-13T12:24:40Z</time>
  <cmt>extensions = 1.24</cmt>
    </trkpt>
    <trkpt lat="28.075462" lon="-15.581099">
    <time>1971-01-13T12:24:46Z</time>
  <cmt>extensions = 1.18</cmt>
    </trkpt>
    <trkpt lat="28.07545" lon="-15.580922">
    <time>1971-01-13T12:25:02Z</time>
  <cmt>extensions = 1.34</cmt>
    </trkpt>
    <trkpt lat="28.075425" lon="-15.580869">
    <time>1971-01-13T12:25:07Z</time>
  <cmt>extensions = 1.18</cmt>
    </trkpt>
    <trkpt lat="28.075445" lon="-15.580794">
    <time>1971-01-13T12:25:14Z</time>
  <cmt>extensions = 2.57</cmt>
    </trkpt>
    <trkpt lat="28.075515" lon="-15.580624">
    <time>1971-01-13T12:25:31Z</time>
  <cmt>extensions = 1.23</cmt>
    </trkpt>
    <trkpt lat="28.076014" lon="-15.580715">
    <time>1971-01-13T12:26:21Z</time>
  <cmt>extensions = 1.38</cmt>
    </trkpt>
    <trkpt lat="28.076225" lon="-15.580711">
    <time>1971-01-13T12:26:42Z</time>
  <cmt>extensions = 1.68</cmt>
    </trkpt>
    <trkpt lat="28.076364" lon="-15.580596">
    <time>1971-01-13T12:26:59Z</time>
  <cmt>extensions = 1.37</cmt>
    </trkpt>
    <trkpt lat="28.076455" lon="-15.580445">
    <time>1971-01-13T12:27:16Z</time>
  <cmt>extensions = 1.28</cmt>
    </trkpt>
    <trkpt lat="28.076574" lon="-15.580394">
    <time>1971-01-13T12:27:28Z</time>
  <cmt>extensions = 1.42</cmt>
    </trkpt>
    <trkpt lat="28.076761" lon="-15.580419">
    <time>1971-01-13T12:27:47Z</time>
  <cmt>extensions = 1.31</cmt>
    </trkpt>
    <trkpt lat="28.076845" lon="-15.58045">
    <time>1971-01-13T12:27:56Z</time>
  <cmt>extensions = 0.58</cmt>
    </trkpt>
    <trkpt lat="28.077009" lon="-15.580461">
    <time>1971-01-13T12:28:12Z</time>
  <cmt>extensions = 1.45</cmt>
    </trkpt>
    <trkpt lat="28.077172" lon="-15.580571">
    <time>1971-01-13T12:28:31Z</time>
  <cmt>extensions = 1.18</cmt>
    </trkpt>
    <trkpt lat="28.077259" lon="-15.580683">
    <time>1971-01-13T12:28:44Z</time>
  <cmt>extensions = 1.33</cmt>
    </trkpt>
    <trkpt lat="28.077469" lon="-15.580818">
    <time>1971-01-13T12:29:08Z</time>
  <cmt>extensions = 1.43</cmt>
    </trkpt>
    <trkpt lat="28.077622" lon="-15.580806">
    <time>1971-01-13T12:29:24Z</time>
  <cmt>extensions = 1.22</cmt>
    </trkpt>
    <trkpt lat="28.077863" lon="-15.580755">
    <time>1971-01-13T12:29:48Z</time>
  <cmt>extensions = 1.54</cmt>
    </trkpt>
    <trkpt lat="28.077915" lon="-15.580737">
    <time>1971-01-13T12:29:54Z</time>
  <cmt>extensions = 1.51</cmt>
    </trkpt>
    <trkpt lat="28.078217" lon="-15.580683">
    <time>1971-01-13T12:30:24Z</time>
  <cmt>extensions = 1.20</cmt>
    </trkpt>
    <trkpt lat="28.078271" lon="-15.58066">
    <time>1971-01-13T12:30:30Z</time>
  <cmt>extensions = 0.49</cmt>
    </trkpt>
    <trkpt lat="28.078412" lon="-15.580694">
    <time>1971-01-13T12:30:44Z</time>
  <cmt>extensions = 0.89</cmt>
    </trkpt>
    <trkpt lat="28.07843" lon="-15.580619">
    <time>1971-01-13T12:30:51Z</time>
  <cmt>extensions = 0.69</cmt>
    </trkpt>
    <trkpt lat="28.078556" lon="-15.580482">
    <time>1971-01-13T12:31:09Z</time>
  <cmt>extensions = 1.20</cmt>
    </trkpt>
    <trkpt lat="28.078661" lon="-15.580306">
    <time>1971-01-13T12:31:27Z</time>
  <cmt>extensions = 1.49</cmt>
    </trkpt>
    <trkpt lat="28.078757" lon="-15.580237">
    <time>1971-01-13T12:31:39Z</time>
  <cmt>extensions = 1.41</cmt>
    </trkpt>
    <trkpt lat="28.078827" lon="-15.580143">
    <time>1971-01-13T12:31:49Z</time>
  <cmt>extensions = 1.73</cmt>
    </trkpt>
    <trkpt lat="28.079058" lon="-15.579936">
    <time>1971-01-13T12:32:19Z</time>
  <cmt>extensions = 1.51</cmt>
    </trkpt>
    <trkpt lat="28.079203" lon="-15.579854">
    <time>1971-01-13T12:32:35Z</time>
  <cmt>extensions = 1.04</cmt>
    </trkpt>
    <trkpt lat="28.079289" lon="-15.579817">
    <time>1971-01-13T12:32:44Z</time>
  <cmt>extensions = 0.57</cmt>
    </trkpt>
    <trkpt lat="28.079448" lon="-15.579792">
    <time>1971-01-13T12:33:00Z</time>
  <cmt>extensions = 1.49</cmt>
    </trkpt>
    <trkpt lat="28.079593" lon="-15.579725">
    <time>1971-01-13T12:33:16Z</time>
  <cmt>extensions = 1.58</cmt>
    </trkpt>
    <trkpt lat="28.079709" lon="-15.579652">
    <time>1971-01-13T12:33:29Z</time>
  <cmt>extensions = 1.48</cmt>
    </trkpt>
    <trkpt lat="28.079844" lon="-15.579507">
    <time>1971-01-13T12:33:48Z</time>
  <cmt>extensions = 1.73</cmt>
    </trkpt>
    <trkpt lat="28.080013" lon="-15.579414">
    <time>1971-01-13T12:34:06Z</time>
  <cmt>extensions = 1.49</cmt>
    </trkpt>
    <trkpt lat="28.080205" lon="-15.579276">
    <time>1971-01-13T12:34:29Z</time>
  <cmt>extensions = 1.58</cmt>
    </trkpt>
    <trkpt lat="28.080337" lon="-15.579137">
    <time>1971-01-13T12:34:47Z</time>
  <cmt>extensions = 1.67</cmt>
    </trkpt>
    <trkpt lat="28.0805" lon="-15.579063">
    <time>1971-01-13T12:35:05Z</time>
  <cmt>extensions = 1.63</cmt>
    </trkpt>
    <trkpt lat="28.080671" lon="-15.579005">
    <time>1971-01-13T12:35:22Z</time>
  <cmt>extensions = 1.53</cmt>
    </trkpt>
    <trkpt lat="28.081098" lon="-15.578944">
    <time>1971-01-13T12:36:05Z</time>
  <cmt>extensions = 1.74</cmt>
    </trkpt>
    <trkpt lat="28.081385" lon="-15.578854">
    <time>1971-01-13T12:36:35Z</time>
  <cmt>extensions = 1.92</cmt>
    </trkpt>
    <trkpt lat="28.081763" lon="-15.578664">
    <time>1971-01-13T12:37:16Z</time>
  <cmt>extensions = 1.70</cmt>
    </trkpt>
    <trkpt lat="28.081893" lon="-15.578549">
    <time>1971-01-13T12:37:33Z</time>
  <cmt>extensions = 1.53</cmt>
    </trkpt>
    <trkpt lat="28.082021" lon="-15.57838">
    <time>1971-01-13T12:37:52Z</time>
  <cmt>extensions = 1.68</cmt>
    </trkpt>
    <trkpt lat="28.082069" lon="-15.578296">
    <time>1971-01-13T12:38:01Z</time>
  <cmt>extensions = 1.97</cmt>
    </trkpt>
    <trkpt lat="28.082204" lon="-15.578147">
    <time>1971-01-13T12:38:20Z</time>
  <cmt>extensions = 1.50</cmt>
    </trkpt>
    <trkpt lat="28.082398" lon="-15.578082">
    <time>1971-01-13T12:38:40Z</time>
  <cmt>extensions = 1.73</cmt>
    </trkpt>
    <trkpt lat="28.082502" lon="-15.578092">
    <time>1971-01-13T12:38:51Z</time>
  <cmt>extensions = 1.45</cmt>
    </trkpt>
    <trkpt lat="28.082558" lon="-15.578052">
    <time>1971-01-13T12:38:57Z</time>
  <cmt>extensions = 1.84</cmt>
    </trkpt>
    <trkpt lat="28.082841" lon="-15.577928">
    <time>1971-01-13T12:39:28Z</time>
  <cmt>extensions = 1.78</cmt>
    </trkpt>
    <trkpt lat="28.083062" lon="-15.577863">
    <time>1971-01-13T12:39:50Z</time>
  <cmt>extensions = 1.69</cmt>
    </trkpt>
    <trkpt lat="28.083264" lon="-15.577858">
    <time>1971-01-13T12:40:10Z</time>
  <cmt>extensions = 1.61</cmt>
    </trkpt>
    <trkpt lat="28.083321" lon="-15.577862">
    <time>1971-01-13T12:40:16Z</time>
  <cmt>extensions = 1.59</cmt>
    </trkpt>
    <trkpt lat="28.083558" lon="-15.577812">
    <time>1971-01-13T12:40:40Z</time>
  <cmt>extensions = 1.45</cmt>
    </trkpt>
    <trkpt lat="28.083722" lon="-15.577809">
    <time>1971-01-13T12:40:57Z</time>
  <cmt>extensions = 1.40</cmt>
    </trkpt>
    <trkpt lat="28.083852" lon="-15.577849">
    <time>1971-01-13T12:41:10Z</time>
  <cmt>extensions = 1.50</cmt>
    </trkpt>
    <trkpt lat="28.083932" lon="-15.577864">
    <time>1971-01-13T12:41:18Z</time>
  <cmt>extensions = 1.50</cmt>
    </trkpt>
    <trkpt lat="28.084086" lon="-15.577859">
    <time>1971-01-13T12:41:33Z</time>
  <cmt>extensions = 2.45</cmt>
    </trkpt>
    <trkpt lat="28.084141" lon="-15.577866">
    <time>1971-01-13T12:41:39Z</time>
  <cmt>extensions = 1.23</cmt>
    </trkpt>
    <trkpt lat="28.08435" lon="-15.577864">
    <time>1971-01-13T12:42:00Z</time>
  <cmt>extensions = 1.45</cmt>
    </trkpt>
    <trkpt lat="28.084547" lon="-15.577882">
    <time>1971-01-13T12:42:20Z</time>
  <cmt>extensions = 1.47</cmt>
    </trkpt>
    <trkpt lat="28.085097" lon="-15.578034">
    <time>1971-01-13T12:43:16Z</time>
  <cmt>extensions = 1.60</cmt>
    </trkpt>
    <trkpt lat="28.085232" lon="-15.578041">
    <time>1971-01-13T12:43:29Z</time>
  <cmt>extensions = 1.67</cmt>
    </trkpt>
    <trkpt lat="28.085326" lon="-15.578089">
    <time>1971-01-13T12:43:40Z</time>
  <cmt>extensions = 1.28</cmt>
    </trkpt>
    <trkpt lat="28.085477" lon="-15.578123">
    <time>1971-01-13T12:43:55Z</time>
  <cmt>extensions = 1.32</cmt>
    </trkpt>
    <trkpt lat="28.085559" lon="-15.578152">
    <time>1971-01-13T12:44:04Z</time>
  <cmt>extensions = 1.91</cmt>
    </trkpt>
    <trkpt lat="28.085616" lon="-15.578154">
    <time>1971-01-13T12:44:09Z</time>
  <cmt>extensions = 1.59</cmt>
    </trkpt>
    <trkpt lat="28.085786" lon="-15.578173">
    <time>1971-01-13T12:44:26Z</time>
  <cmt>extensions = 2.32</cmt>
    </trkpt>
    <trkpt lat="28.086541" lon="-15.578218">
    <time>1971-01-13T12:45:42Z</time>
  <cmt>extensions = 2.61</cmt>
    </trkpt>
    <trkpt lat="28.086718" lon="-15.578177">
    <time>1971-01-13T12:46:00Z</time>
  <cmt>extensions = 1.55</cmt>
    </trkpt>
    <trkpt lat="28.087038" lon="-15.578022">
    <time>1971-01-13T12:46:35Z</time>
  <cmt>extensions = 1.92</cmt>
    </trkpt>
    <trkpt lat="28.08733" lon="-15.577769">
    <time>1971-01-13T12:47:11Z</time>
  <cmt>extensions = 1.64</cmt>
    </trkpt>
    <trkpt lat="28.087551" lon="-15.577631">
    <time>1971-01-13T12:47:36Z</time>
  <cmt>extensions = 1.76</cmt>
    </trkpt>
    <trkpt lat="28.08776" lon="-15.577542">
    <time>1971-01-13T12:47:59Z</time>
  <cmt>extensions = 1.78</cmt>
    </trkpt>
    <trkpt lat="28.087966" lon="-15.577548">
    <time>1971-01-13T12:48:19Z</time>
  <cmt>extensions = 1.53</cmt>
    </trkpt>
    <trkpt lat="28.088169" lon="-15.577542">
    <time>1971-01-13T12:48:40Z</time>
  <cmt>extensions = 1.74</cmt>
    </trkpt>
    <trkpt lat="28.088358" lon="-15.577606">
    <time>1971-01-13T12:48:59Z</time>
  <cmt>extensions = 1.69</cmt>
    </trkpt>
    <trkpt lat="28.088546" lon="-15.577625">
    <time>1971-01-13T12:49:18Z</time>
  <cmt>extensions = 1.91</cmt>
    </trkpt>
    <trkpt lat="28.088718" lon="-15.577569">
    <time>1971-01-13T12:49:36Z</time>
  <cmt>extensions = 1.53</cmt>
    </trkpt>
    <trkpt lat="28.088876" lon="-15.577448">
    <time>1971-01-13T12:49:55Z</time>
  <cmt>extensions = 1.63</cmt>
    </trkpt>
    <trkpt lat="28.089179" lon="-15.577374">
    <time>1971-01-13T12:50:26Z</time>
  <cmt>extensions = 0.87</cmt>
    </trkpt>
    <trkpt lat="28.090046" lon="-15.577304">
    <time>1971-01-13T12:51:53Z</time>
  <cmt>extensions = 1.23</cmt>
    </trkpt>
    <trkpt lat="28.090146" lon="-15.577307">
    <time>1971-01-13T12:52:03Z</time>
  <cmt>extensions = 1.11</cmt>
    </trkpt>
    <trkpt lat="28.090334" lon="-15.57723">
    <time>1971-01-13T12:52:22Z</time>
  <cmt>extensions = 1.59</cmt>
    </trkpt>
    <trkpt lat="28.090814" lon="-15.577069">
    <time>1971-01-13T12:53:12Z</time>
  <cmt>extensions = 1.74</cmt>
    </trkpt>
    <trkpt lat="28.091288" lon="-15.576739">
    <time>1971-01-13T12:54:08Z</time>
  <cmt>extensions = 1.62</cmt>
    </trkpt>
    <trkpt lat="28.091554" lon="-15.576638">
    <time>1971-01-13T12:54:36Z</time>
  <cmt>extensions = 0.69</cmt>
    </trkpt>
    <trkpt lat="28.092069" lon="-15.576173">
    <time>1971-01-13T12:55:42Z</time>
    </trkpt>
    <trkpt lat="28.092523" lon="-15.57592">
    <time>1971-01-13T12:56:32Z</time>
    </trkpt>
    <trkpt lat="28.092954" lon="-15.575783">
    <time>1971-01-13T12:57:17Z</time>
    </trkpt>
    <trkpt lat="28.093111" lon="-15.575809">
    <time>1971-01-13T12:57:33Z</time>
  <cmt>extensions = 0.01</cmt>
    </trkpt>
    <trkpt lat="28.092997" lon="-15.576181">
    <time>1971-01-13T12:58:08Z</time>
  <cmt>extensions = 1.42</cmt>
    </trkpt>
    <trkpt lat="28.092939" lon="-15.576259">
    <time>1971-01-13T12:58:17Z</time>
  <cmt>extensions = 1.43</cmt>
    </trkpt>
    <trkpt lat="28.092882" lon="-15.576356">
    <time>1971-01-13T12:58:27Z</time>
  <cmt>extensions = 1.91</cmt>
    </trkpt>
    <trkpt lat="28.092896" lon="-15.576494">
    <time>1971-01-13T12:58:39Z</time>
  <cmt>extensions = 1.24</cmt>
    </trkpt>
    <trkpt lat="28.092924" lon="-15.576588">
    <time>1971-01-13T12:58:48Z</time>
  <cmt>extensions = 1.08</cmt>
    </trkpt>
    <trkpt lat="28.092897" lon="-15.576689">
    <time>1971-01-13T12:58:57Z</time>
  <cmt>extensions = 0.01</cmt>
    </trkpt>
    <trkpt lat="28.092993" lon="-15.576928">
    <time>1971-01-13T12:59:20Z</time>
  <cmt>extensions = 1.61</cmt>
    </trkpt>
    <trkpt lat="28.092967" lon="-15.57707">
    <time>1971-01-13T12:59:33Z</time>
  <cmt>extensions = 1.10</cmt>
    </trkpt>
    <trkpt lat="28.092953" lon="-15.577264">
    <time>1971-01-13T12:59:50Z</time>
  <cmt>extensions = 1.19</cmt>
    </trkpt>
    <trkpt lat="28.092872" lon="-15.57736">
    <time>1971-01-13T13:00:02Z</time>
  <cmt>extensions = 1.04</cmt>
    </trkpt>
    <trkpt lat="28.092782" lon="-15.577356">
    <time>1971-01-13T13:00:11Z</time>
  <cmt>extensions = 1.11</cmt>
    </trkpt>
    <trkpt lat="28.092781" lon="-15.577458">
    <time>1971-01-13T13:00:20Z</time>
  <cmt>extensions = 1.11</cmt>
    </trkpt>
    <trkpt lat="28.092716" lon="-15.577577">
    <time>1971-01-13T13:00:32Z</time>
  <cmt>extensions = 1.53</cmt>
    </trkpt>
    <trkpt lat="28.092398" lon="-15.577926">
    <time>1971-01-13T13:01:17Z</time>
  <cmt>extensions = 1.77</cmt>
    </trkpt>
    <trkpt lat="28.092291" lon="-15.577971">
    <time>1971-01-13T13:01:28Z</time>
  <cmt>extensions = 1.27</cmt>
    </trkpt>
    <trkpt lat="28.092147" lon="-15.577936">
    <time>1971-01-13T13:01:43Z</time>
  <cmt>extensions = 1.14</cmt>
    </trkpt>
    <trkpt lat="28.091987" lon="-15.577926">
    <time>1971-01-13T13:01:59Z</time>
  <cmt>extensions = 2.85</cmt>
    </trkpt>
    <trkpt lat="28.091833" lon="-15.577806">
    <time>1971-01-13T13:02:17Z</time>
  <cmt>extensions = 1.73</cmt>
    </trkpt>
    <trkpt lat="28.091777" lon="-15.577795">
    <time>1971-01-13T13:02:23Z</time>
  <cmt>extensions = 1.58</cmt>
    </trkpt>
    <trkpt lat="28.091689" lon="-15.577815">
    <time>1971-01-13T13:02:32Z</time>
  <cmt>extensions = 1.30</cmt>
    </trkpt>
    <trkpt lat="28.091541" lon="-15.57799">
    <time>1971-01-13T13:02:53Z</time>
  <cmt>extensions = 2.16</cmt>
    </trkpt>
    <trkpt lat="28.091446" lon="-15.578333">
    <time>1971-01-13T13:03:25Z</time>
  <cmt>extensions = 1.30</cmt>
    </trkpt>
    <trkpt lat="28.091587" lon="-15.578159">
    <time>1971-01-13T13:03:46Z</time>
  <cmt>extensions = 1.89</cmt>
    </trkpt>
    <trkpt lat="28.091649" lon="-15.57813">
    <time>1971-01-13T13:03:53Z</time>
  <cmt>extensions = 1.84</cmt>
    </trkpt>
    <trkpt lat="28.091722" lon="-15.578182">
    <time>1971-01-13T13:04:01Z</time>
  <cmt>extensions = 1.39</cmt>
    </trkpt>
    <trkpt lat="28.0918" lon="-15.578308">
    <time>1971-01-13T13:04:15Z</time>
  <cmt>extensions = 1.89</cmt>
    </trkpt>
    <trkpt lat="28.091983" lon="-15.578494">
    <time>1971-01-13T13:04:39Z</time>
  <cmt>extensions = 1.48</cmt>
    </trkpt>
    <trkpt lat="28.092041" lon="-15.578536">
    <time>1971-01-13T13:04:46Z</time>
  <cmt>extensions = 1.52</cmt>
    </trkpt>
    <trkpt lat="28.092099" lon="-15.578646">
    <time>1971-01-13T13:04:57Z</time>
  <cmt>extensions = 1.40</cmt>
    </trkpt>
    <trkpt lat="28.092159" lon="-15.578736">
    <time>1971-01-13T13:05:07Z</time>
  <cmt>extensions = 1.58</cmt>
    </trkpt>
    <trkpt lat="28.092396" lon="-15.578881">
    <time>1971-01-13T13:05:34Z</time>
  <cmt>extensions = 0.01</cmt>
    </trkpt>
    <trkpt lat="28.092692" lon="-15.578834">
    <time>1971-01-13T13:06:04Z</time>
  <cmt>extensions = 0.53</cmt>
    </trkpt>
    <trkpt lat="28.092457" lon="-15.578861">
    <time>1971-01-13T13:06:28Z</time>
  <cmt>extensions = 1.21</cmt>
    </trkpt>
    <trkpt lat="28.092747" lon="-15.578848">
    <time>1971-01-13T13:06:57Z</time>
  <cmt>extensions = 0.02</cmt>
    </trkpt>
    <trkpt lat="28.093107" lon="-15.578535">
    <time>1971-01-13T13:07:42Z</time>
  <cmt>extensions = 0.93</cmt>
    </trkpt>
    <trkpt lat="28.093446" lon="-15.578488">
    <time>1971-01-13T13:08:16Z</time>
  <cmt>extensions = 1.58</cmt>
    </trkpt>
    <trkpt lat="28.093641" lon="-15.578415">
    <time>1971-01-13T13:08:37Z</time>
  <cmt>extensions = 1.43</cmt>
    </trkpt>
    <trkpt lat="28.093693" lon="-15.57833">
    <time>1971-01-13T13:08:46Z</time>
  <cmt>extensions = 1.27</cmt>
    </trkpt>
    <trkpt lat="28.093861" lon="-15.578201">
    <time>1971-01-13T13:09:06Z</time>
  <cmt>extensions = 1.22</cmt>
    </trkpt>
    <trkpt lat="28.093904" lon="-15.578036">
    <time>1971-01-13T13:09:21Z</time>
  <cmt>extensions = 1.69</cmt>
    </trkpt>
    <trkpt lat="28.093925" lon="-15.577871">
    <time>1971-01-13T13:09:36Z</time>
  <cmt>extensions = 0.82</cmt>
    </trkpt>
    <trkpt lat="28.093958" lon="-15.577826">
    <time>1971-01-13T13:09:41Z</time>
  <cmt>extensions = 0.95</cmt>
    </trkpt>
    <trkpt lat="28.093917" lon="-15.577732">
    <time>1971-01-13T13:09:50Z</time>
  <cmt>extensions = 0.61</cmt>
    </trkpt>
    <trkpt lat="28.093976" lon="-15.577627">
    <time>1971-01-13T13:10:01Z</time>
  <cmt>extensions = 0.82</cmt>
    </trkpt>
    <trkpt lat="28.094084" lon="-15.577561">
    <time>1971-01-13T13:10:13Z</time>
  <cmt>extensions = 0.91</cmt>
    </trkpt>
    <trkpt lat="28.094138" lon="-15.577608">
    <time>1971-01-13T13:10:20Z</time>
  <cmt>extensions = 0.90</cmt>
    </trkpt>
    <trkpt lat="28.09413" lon="-15.577744">
    <time>1971-01-13T13:10:32Z</time>
  <cmt>extensions = 1.06</cmt>
    </trkpt>
    <trkpt lat="28.094349" lon="-15.577585">
    <time>1971-01-13T13:10:58Z</time>
  <cmt>extensions = 1.52</cmt>
    </trkpt>
    <trkpt lat="28.094442" lon="-15.577564">
    <time>1971-01-13T13:11:08Z</time>
  <cmt>extensions = 1.76</cmt>
    </trkpt>
    <trkpt lat="28.094648" lon="-15.577483">
    <time>1971-01-13T13:11:29Z</time>
  <cmt>extensions = 1.83</cmt>
    </trkpt>
    <trkpt lat="28.09468" lon="-15.577401">
    <time>1971-01-13T13:11:37Z</time>
  <cmt>extensions = 1.47</cmt>
    </trkpt>
    <trkpt lat="28.094769" lon="-15.577346">
    <time>1971-01-13T13:11:47Z</time>
  <cmt>extensions = 1.61</cmt>
    </trkpt>
    <trkpt lat="28.094838" lon="-15.577328">
    <time>1971-01-13T13:11:54Z</time>
  <cmt>extensions = 1.58</cmt>
    </trkpt>
    <trkpt lat="28.094935" lon="-15.577414">
    <time>1971-01-13T13:12:07Z</time>
  <cmt>extensions = 0.42</cmt>
    </trkpt>
    <trkpt lat="28.094951" lon="-15.577474">
    <time>1971-01-13T13:12:12Z</time>
  <cmt>extensions = 1.48</cmt>
    </trkpt>
    <trkpt lat="28.095013" lon="-15.577479">
    <time>1971-01-13T13:12:18Z</time>
  <cmt>extensions = 1.73</cmt>
    </trkpt>
    <trkpt lat="28.095167" lon="-15.577403">
    <time>1971-01-13T13:12:35Z</time>
  <cmt>extensions = 2.34</cmt>
    </trkpt>
    <trkpt lat="28.095286" lon="-15.577373">
    <time>1971-01-13T13:12:47Z</time>
  <cmt>extensions = 2.71</cmt>
    </trkpt>
    <trkpt lat="28.095368" lon="-15.577341">
    <time>1971-01-13T13:12:56Z</time>
  <cmt>extensions = 1.68</cmt>
    </trkpt>
    <trkpt lat="28.095203" lon="-15.57753">
    <time>1971-01-13T13:13:19Z</time>
  <cmt>extensions = 2.76</cmt>
    </trkpt>
    <trkpt lat="28.095172" lon="-15.577601">
    <time>1971-01-13T13:13:26Z</time>
  <cmt>extensions = 2.59</cmt>
    </trkpt>
    <trkpt lat="28.095095" lon="-15.577686">
    <time>1971-01-13T13:13:37Z</time>
  <cmt>extensions = 2.25</cmt>
    </trkpt>
    <trkpt lat="28.09504" lon="-15.577718">
    <time>1971-01-13T13:13:43Z</time>
  <cmt>extensions = 2.29</cmt>
    </trkpt>
    <trkpt lat="28.095071" lon="-15.57784">
    <time>1971-01-13T13:13:55Z</time>
  <cmt>extensions = 1.78</cmt>
    </trkpt>
    <trkpt lat="28.095079" lon="-15.57814">
    <time>1971-01-13T13:14:21Z</time>
  <cmt>extensions = 1.76</cmt>
    </trkpt>
    <trkpt lat="28.094887" lon="-15.578166">
    <time>1971-01-13T13:14:40Z</time>
  <cmt>extensions = 0.67</cmt>
    </trkpt>
    <trkpt lat="28.094725" lon="-15.578287">
    <time>1971-01-13T13:15:00Z</time>
  <cmt>extensions = 1.60</cmt>
    </trkpt>
    <trkpt lat="28.094687" lon="-15.578333">
    <time>1971-01-13T13:15:05Z</time>
  <cmt>extensions = 1.08</cmt>
    </trkpt>
    <trkpt lat="28.094652" lon="-15.578477">
    <time>1971-01-13T13:15:18Z</time>
  <cmt>extensions = 1.17</cmt>
    </trkpt>
    <trkpt lat="28.094661" lon="-15.578536">
    <time>1971-01-13T13:15:24Z</time>
  <cmt>extensions = 0.98</cmt>
    </trkpt>
    <trkpt lat="28.094884" lon="-15.578278">
    <time>1971-01-13T13:15:56Z</time>
  <cmt>extensions = 2.11</cmt>
    </trkpt>
    <trkpt lat="28.094994" lon="-15.578196">
    <time>1971-01-13T13:16:09Z</time>
  <cmt>extensions = 1.47</cmt>
    </trkpt>
    <trkpt lat="28.095147" lon="-15.578162">
    <time>1971-01-13T13:16:24Z</time>
  <cmt>extensions = 1.95</cmt>
    </trkpt>
    <trkpt lat="28.095194" lon="-15.578125">
    <time>1971-01-13T13:16:30Z</time>
  <cmt>extensions = 0.11</cmt>
    </trkpt>
    <trkpt lat="28.095243" lon="-15.578278">
    <time>1971-01-13T13:16:44Z</time>
  <cmt>extensions = 1.45</cmt>
    </trkpt>
    <trkpt lat="28.095196" lon="-15.578384">
    <time>1971-01-13T13:16:55Z</time>
  <cmt>extensions = 1.29</cmt>
    </trkpt>
    <trkpt lat="28.095245" lon="-15.578356">
    <time>1971-01-13T13:17:00Z</time>
  <cmt>extensions = 1.23</cmt>
    </trkpt>
    <trkpt lat="28.095272" lon="-15.578238">
    <time>1971-01-13T13:17:11Z</time>
  <cmt>extensions = 1.42</cmt>
    </trkpt>
    <trkpt lat="28.095413" lon="-15.578021">
    <time>1971-01-13T13:17:35Z</time>
  <cmt>extensions = 1.45</cmt>
    </trkpt>
    <trkpt lat="28.09553" lon="-15.577884">
    <time>1971-01-13T13:17:52Z</time>
  <cmt>extensions = 1.56</cmt>
    </trkpt>
    <trkpt lat="28.095592" lon="-15.577858">
    <time>1971-01-13T13:17:58Z</time>
  <cmt>extensions = 1.84</cmt>
    </trkpt>
    <trkpt lat="28.095661" lon="-15.577769">
    <time>1971-01-13T13:18:09Z</time>
  <cmt>extensions = 1.45</cmt>
    </trkpt>
    <trkpt lat="28.095738" lon="-15.57764">
    <time>1971-01-13T13:18:22Z</time>
  <cmt>extensions = 1.91</cmt>
    </trkpt>
    <trkpt lat="28.0958" lon="-15.57728">
    <time>1971-01-13T13:18:55Z</time>
  <cmt>extensions = 1.61</cmt>
    </trkpt>
    <trkpt lat="28.095896" lon="-15.577025">
    <time>1971-01-13T13:19:19Z</time>
  <cmt>extensions = 1.82</cmt>
    </trkpt>
    <trkpt lat="28.095906" lon="-15.576812">
    <time>1971-01-13T13:19:38Z</time>
  <cmt>extensions = 1.60</cmt>
    </trkpt>
    <trkpt lat="28.09601" lon="-15.576708">
    <time>1971-01-13T13:19:52Z</time>
  <cmt>extensions = 2.02</cmt>
    </trkpt>
    <trkpt lat="28.09607" lon="-15.576688">
    <time>1971-01-13T13:19:58Z</time>
  <cmt>extensions = 1.74</cmt>
    </trkpt>
    <trkpt lat="28.096289" lon="-15.576578">
    <time>1971-01-13T13:20:22Z</time>
  <cmt>extensions = 1.10</cmt>
    </trkpt>
    <trkpt lat="28.096341" lon="-15.576532">
    <time>1971-01-13T13:20:29Z</time>
  <cmt>extensions = 0.20</cmt>
    </trkpt>
    <trkpt lat="28.096394" lon="-15.576322">
    <time>1971-01-13T13:20:48Z</time>
  <cmt>extensions = 1.53</cmt>
    </trkpt>
    <trkpt lat="28.096359" lon="-15.576145">
    <time>1971-01-13T13:21:04Z</time>
  <cmt>extensions = 1.08</cmt>
    </trkpt>
    <trkpt lat="28.096276" lon="-15.576122">
    <time>1971-01-13T13:21:13Z</time>
  <cmt>extensions = 1.59</cmt>
    </trkpt>
    <trkpt lat="28.096223" lon="-15.576113">
    <time>1971-01-13T13:21:18Z</time>
  <cmt>extensions = 1.49</cmt>
    </trkpt>
    <trkpt lat="28.096081" lon="-15.576068">
    <time>1971-01-13T13:21:33Z</time>
  <cmt>extensions = 1.64</cmt>
    </trkpt>
    <trkpt lat="28.095959" lon="-15.57594">
    <time>1971-01-13T13:21:49Z</time>
  <cmt>extensions = 1.54</cmt>
    </trkpt>
    <trkpt lat="28.095833" lon="-15.575754">
    <time>1971-01-13T13:22:10Z</time>
  <cmt>extensions = 1.57</cmt>
    </trkpt>
    <trkpt lat="28.095759" lon="-15.575677">
    <time>1971-01-13T13:22:20Z</time>
  <cmt>extensions = 1.62</cmt>
    </trkpt>
    <trkpt lat="28.095613" lon="-15.575611">
    <time>1971-01-13T13:22:36Z</time>
  <cmt>extensions = 1.46</cmt>
    </trkpt>
    <trkpt lat="28.095585" lon="-15.575527">
    <time>1971-01-13T13:22:43Z</time>
  <cmt>extensions = 1.66</cmt>
    </trkpt>
    <trkpt lat="28.095527" lon="-15.575458">
    <time>1971-01-13T13:22:52Z</time>
  <cmt>extensions = 2.34</cmt>
    </trkpt>
    <trkpt lat="28.095565" lon="-15.575349">
    <time>1971-01-13T13:23:02Z</time>
  <cmt>extensions = 1.92</cmt>
    </trkpt>
    <trkpt lat="28.095573" lon="-15.57521">
    <time>1971-01-13T13:23:14Z</time>
  <cmt>extensions = 1.65</cmt>
    </trkpt>
    <trkpt lat="28.095709" lon="-15.5751">
    <time>1971-01-13T13:23:31Z</time>
  <cmt>extensions = 3.11</cmt>
    </trkpt>
    <trkpt lat="28.095746" lon="-15.57504">
    <time>1971-01-13T13:23:38Z</time>
  <cmt>extensions = 1.38</cmt>
    </trkpt>
    <trkpt lat="28.09593" lon="-15.574904">
    <time>1971-01-13T13:24:00Z</time>
  <cmt>extensions = 1.53</cmt>
    </trkpt>
    <trkpt lat="28.095969" lon="-15.57471">
    <time>1971-01-13T13:24:17Z</time>
  <cmt>extensions = 1.30</cmt>
    </trkpt>
    <trkpt lat="28.09588" lon="-15.574521">
    <time>1971-01-13T13:24:36Z</time>
  <cmt>extensions = 1.62</cmt>
    </trkpt>
    <trkpt lat="28.095779" lon="-15.574238">
    <time>1971-01-13T13:25:03Z</time>
  <cmt>extensions = 1.76</cmt>
    </trkpt>
    <trkpt lat="28.095678" lon="-15.574034">
    <time>1971-01-13T13:25:24Z</time>
  <cmt>extensions = 1.77</cmt>
    </trkpt>
    <trkpt lat="28.095628" lon="-15.573866">
    <time>1971-01-13T13:25:39Z</time>
  <cmt>extensions = 1.58</cmt>
    </trkpt>
    <trkpt lat="28.095616" lon="-15.57379">
    <time>1971-01-13T13:25:46Z</time>
  <cmt>extensions = 1.26</cmt>
    </trkpt>
    <trkpt lat="28.09564" lon="-15.573687">
    <time>1971-01-13T13:25:55Z</time>
  <cmt>extensions = 0.80</cmt>
    </trkpt>
    <trkpt lat="28.095625" lon="-15.573611">
    <time>1971-01-13T13:26:02Z</time>
  <cmt>extensions = 0.48</cmt>
    </trkpt>
    <trkpt lat="28.095577" lon="-15.573529">
    <time>1971-01-13T13:26:11Z</time>
  <cmt>extensions = 0.64</cmt>
    </trkpt>
    <trkpt lat="28.095504" lon="-15.573489">
    <time>1971-01-13T13:26:19Z</time>
  <cmt>extensions = 1.13</cmt>
    </trkpt>
    <trkpt lat="28.095459" lon="-15.57323">
    <time>1971-01-13T13:26:42Z</time>
  <cmt>extensions = 0.89</cmt>
    </trkpt>
    <trkpt lat="28.095505" lon="-15.573172">
    <time>1971-01-13T13:26:49Z</time>
  <cmt>extensions = 1.53</cmt>
    </trkpt>
    <trkpt lat="28.095542" lon="-15.573085">
    <time>1971-01-13T13:26:58Z</time>
  <cmt>extensions = 1.05</cmt>
    </trkpt>
    <trkpt lat="28.095625" lon="-15.572962">
    <time>1971-01-13T13:27:11Z</time>
  <cmt>extensions = 1.31</cmt>
    </trkpt>
    <trkpt lat="28.095535" lon="-15.572739">
    <time>1971-01-13T13:27:33Z</time>
  <cmt>extensions = 1.29</cmt>
    </trkpt>
    <trkpt lat="28.095572" lon="-15.572673">
    <time>1971-01-13T13:27:40Z</time>
  <cmt>extensions = 3.84</cmt>
    </trkpt>
    <trkpt lat="28.09565" lon="-15.572615">
    <time>1971-01-13T13:27:49Z</time>
  <cmt>extensions = 1.09</cmt>
    </trkpt>
    <trkpt lat="28.095687" lon="-15.572559">
    <time>1971-01-13T13:27:55Z</time>
  <cmt>extensions = 1.15</cmt>
    </trkpt>
    <trkpt lat="28.095649" lon="-15.572485">
    <time>1971-01-13T13:28:03Z</time>
  <cmt>extensions = 2.10</cmt>
    </trkpt>
    <trkpt lat="28.095638" lon="-15.572398">
    <time>1971-01-13T13:28:11Z</time>
  <cmt>extensions = 1.73</cmt>
    </trkpt>
    <trkpt lat="28.095761" lon="-15.57249">
    <time>1971-01-13T13:28:26Z</time>
  <cmt>extensions = 2.34</cmt>
    </trkpt>
    <trkpt lat="28.095815" lon="-15.572546">
    <time>1971-01-13T13:28:33Z</time>
  <cmt>extensions = 0.61</cmt>
    </trkpt>
    <trkpt lat="28.095785" lon="-15.57243">
    <time>1971-01-13T13:28:43Z</time>
  <cmt>extensions = 1.65</cmt>
    </trkpt>
    <trkpt lat="28.095817" lon="-15.57234">
    <time>1971-01-13T13:28:52Z</time>
  <cmt>extensions = 0.50</cmt>
    </trkpt>
    <trkpt lat="28.095859" lon="-15.572069">
    <time>1971-01-13T13:29:16Z</time>
  <cmt>extensions = 2.21</cmt>
    </trkpt>
    <trkpt lat="28.095806" lon="-15.571996">
    <time>1971-01-13T13:29:25Z</time>
  <cmt>extensions = 2.32</cmt>
    </trkpt>
    <trkpt lat="28.095715" lon="-15.571924">
    <time>1971-01-13T13:29:36Z</time>
  <cmt>extensions = 2.47</cmt>
    </trkpt>
    <trkpt lat="28.095784" lon="-15.571828">
    <time>1971-01-13T13:29:47Z</time>
  <cmt>extensions = 1.35</cmt>
    </trkpt>
    <trkpt lat="28.095753" lon="-15.571774">
    <time>1971-01-13T13:29:52Z</time>
  <cmt>extensions = 1.27</cmt>
    </trkpt>
    <trkpt lat="28.09562" lon="-15.571723">
    <time>1971-01-13T13:30:06Z</time>
  <cmt>extensions = 1.42</cmt>
    </trkpt>
    <trkpt lat="28.09554" lon="-15.571668">
    <time>1971-01-13T13:30:16Z</time>
  <cmt>extensions = 1.49</cmt>
    </trkpt>
    <trkpt lat="28.09552" lon="-15.57147">
    <time>1971-01-13T13:30:33Z</time>
  <cmt>extensions = 0.50</cmt>
    </trkpt>
    <trkpt lat="28.095481" lon="-15.571424">
    <time>1971-01-13T13:30:39Z</time>
  <cmt>extensions = 0.78</cmt>
    </trkpt>
    <trkpt lat="28.095568" lon="-15.57141">
    <time>1971-01-13T13:30:48Z</time>
  <cmt>extensions = 1.41</cmt>
    </trkpt>
    <trkpt lat="28.095593" lon="-15.571471">
    <time>1971-01-13T13:30:54Z</time>
  <cmt>extensions = 1.65</cmt>
    </trkpt>
    <trkpt lat="28.095551" lon="-15.571387">
    <time>1971-01-13T13:31:02Z</time>
  <cmt>extensions = 1.58</cmt>
    </trkpt>
    <trkpt lat="28.095623" lon="-15.571377">
    <time>1971-01-13T13:31:09Z</time>
  <cmt>extensions = 1.30</cmt>
    </trkpt>
    <trkpt lat="28.095672" lon="-15.571333">
    <time>1971-01-13T13:31:16Z</time>
  <cmt>extensions = 0.92</cmt>
    </trkpt>
    <trkpt lat="28.095724" lon="-15.571366">
    <time>1971-01-13T13:31:22Z</time>
  <cmt>extensions = 1.33</cmt>
    </trkpt>
    <trkpt lat="28.095816" lon="-15.571454">
    <time>1971-01-13T13:31:34Z</time>
  <cmt>extensions = 1.68</cmt>
    </trkpt>
    <trkpt lat="28.095883" lon="-15.57144">
    <time>1971-01-13T13:31:40Z</time>
  <cmt>extensions = 1.70</cmt>
    </trkpt>
    <trkpt lat="28.095897" lon="-15.571391">
    <time>1971-01-13T13:31:45Z</time>
  <cmt>extensions = 1.01</cmt>
    </trkpt>
    <trkpt lat="28.095926" lon="-15.57132">
    <time>1971-01-13T13:31:52Z</time>
  <cmt>extensions = 2.07</cmt>
    </trkpt>
    <trkpt lat="28.095984" lon="-15.571257">
    <time>1971-01-13T13:32:00Z</time>
  <cmt>extensions = 1.49</cmt>
    </trkpt>
    <trkpt lat="28.09605" lon="-15.571175">
    <time>1971-01-13T13:32:10Z</time>
  <cmt>extensions = 1.16</cmt>
    </trkpt>
    <trkpt lat="28.095986" lon="-15.57115">
    <time>1971-01-13T13:32:16Z</time>
  <cmt>extensions = 1.06</cmt>
    </trkpt>
    <trkpt lat="28.095916" lon="-15.571027">
    <time>1971-01-13T13:32:29Z</time>
  <cmt>extensions = 1.03</cmt>
    </trkpt>
    <trkpt lat="28.095952" lon="-15.570976">
    <time>1971-01-13T13:32:35Z</time>
  <cmt>extensions = 1.60</cmt>
    </trkpt>
    <trkpt lat="28.095995" lon="-15.570915">
    <time>1971-01-13T13:32:42Z</time>
  <cmt>extensions = 1.53</cmt>
    </trkpt>
    <trkpt lat="28.096076" lon="-15.570889">
    <time>1971-01-13T13:32:50Z</time>
  <cmt>extensions = 1.34</cmt>
    </trkpt>
    <trkpt lat="28.096228" lon="-15.570918">
    <time>1971-01-13T13:33:06Z</time>
  <cmt>extensions = 1.14</cmt>
    </trkpt>
    <trkpt lat="28.096294" lon="-15.570966">
    <time>1971-01-13T13:33:13Z</time>
  <cmt>extensions = 1.25</cmt>
    </trkpt>
    <trkpt lat="28.096436" lon="-15.571002">
    <time>1971-01-13T13:33:28Z</time>
  <cmt>extensions = 1.62</cmt>
    </trkpt>
    <trkpt lat="28.096558" lon="-15.570991">
    <time>1971-01-13T13:33:40Z</time>
  <cmt>extensions = 1.35</cmt>
    </trkpt>
    <trkpt lat="28.096732" lon="-15.571024">
    <time>1971-01-13T13:33:58Z</time>
  <cmt>extensions = 1.23</cmt>
    </trkpt>
    <trkpt lat="28.096821" lon="-15.571049">
    <time>1971-01-13T13:34:07Z</time>
  <cmt>extensions = 1.46</cmt>
    </trkpt>
    <trkpt lat="28.096863" lon="-15.571016">
    <time>1971-01-13T13:34:12Z</time>
  <cmt>extensions = 1.90</cmt>
    </trkpt>
    <trkpt lat="28.096958" lon="-15.570998">
    <time>1971-01-13T13:34:22Z</time>
  <cmt>extensions = 1.68</cmt>
    </trkpt>
    <trkpt lat="28.097041" lon="-15.57102">
    <time>1971-01-13T13:34:30Z</time>
  <cmt>extensions = 1.36</cmt>
    </trkpt>
    <trkpt lat="28.097189" lon="-15.570991">
    <time>1971-01-13T13:34:45Z</time>
  <cmt>extensions = 1.29</cmt>
    </trkpt>
    <trkpt lat="28.097285" lon="-15.570959">
    <time>1971-01-13T13:34:55Z</time>
  <cmt>extensions = 1.01</cmt>
    </trkpt>
    <trkpt lat="28.09735" lon="-15.570928">
    <time>1971-01-13T13:35:02Z</time>
  <cmt>extensions = 1.96</cmt>
    </trkpt>
    <trkpt lat="28.09747" lon="-15.570896">
    <time>1971-01-13T13:35:14Z</time>
  <cmt>extensions = 1.21</cmt>
    </trkpt>
    <trkpt lat="28.097575" lon="-15.570936">
    <time>1971-01-13T13:35:26Z</time>
  <cmt>extensions = 0.80</cmt>
    </trkpt>
    <trkpt lat="28.097649" lon="-15.571003">
    <time>1971-01-13T13:35:35Z</time>
  <cmt>extensions = 0.28</cmt>
    </trkpt>
    <trkpt lat="28.097647" lon="-15.570944">
    <time>1971-01-13T13:35:40Z</time>
  <cmt>extensions = 0.11</cmt>
    </trkpt>
    <trkpt lat="28.097668" lon="-15.57082">
    <time>1971-01-13T13:35:51Z</time>
  <cmt>extensions = 0.85</cmt>
    </trkpt>
    <trkpt lat="28.097743" lon="-15.570883">
    <time>1971-01-13T13:36:01Z</time>
  <cmt>extensions = 1.27</cmt>
    </trkpt>
    <trkpt lat="28.097862" lon="-15.570986">
    <time>1971-01-13T13:36:16Z</time>
  <cmt>extensions = 0.87</cmt>
    </trkpt>
    <trkpt lat="28.097861" lon="-15.570924">
    <time>1971-01-13T13:36:21Z</time>
  <cmt>extensions = 1.17</cmt>
    </trkpt>
    <trkpt lat="28.097841" lon="-15.570876">
    <time>1971-01-13T13:36:26Z</time>
  <cmt>extensions = 1.30</cmt>
    </trkpt>
    <trkpt lat="28.097817" lon="-15.570777">
    <time>1971-01-13T13:36:35Z</time>
  <cmt>extensions = 1.01</cmt>
    </trkpt>
    <trkpt lat="28.097769" lon="-15.57071">
    <time>1971-01-13T13:36:42Z</time>
  <cmt>extensions = 1.08</cmt>
    </trkpt>
    <trkpt lat="28.097734" lon="-15.570551">
    <time>1971-01-13T13:36:57Z</time>
  <cmt>extensions = 1.34</cmt>
    </trkpt>
    <trkpt lat="28.097681" lon="-15.570451">
    <time>1971-01-13T13:37:07Z</time>
  <cmt>extensions = 1.47</cmt>
    </trkpt>
    <trkpt lat="28.097578" lon="-15.570478">
    <time>1971-01-13T13:37:18Z</time>
  <cmt>extensions = 1.47</cmt>
    </trkpt>
    <trkpt lat="28.097511" lon="-15.570479">
    <time>1971-01-13T13:37:24Z</time>
  <cmt>extensions = 1.24</cmt>
    </trkpt>
    <trkpt lat="28.097489" lon="-15.570433">
    <time>1971-01-13T13:37:29Z</time>
  <cmt>extensions = 1.71</cmt>
    </trkpt>
    <trkpt lat="28.097425" lon="-15.570375">
    <time>1971-01-13T13:37:37Z</time>
  <cmt>extensions = 1.33</cmt>
    </trkpt>
    <trkpt lat="28.097347" lon="-15.570243">
    <time>1971-01-13T13:37:51Z</time>
  <cmt>extensions = 1.19</cmt>
    </trkpt>
    <trkpt lat="28.097359" lon="-15.570183">
    <time>1971-01-13T13:37:57Z</time>
  <cmt>extensions = 0.76</cmt>
    </trkpt>
    <trkpt lat="28.097419" lon="-15.570259">
    <time>1971-01-13T13:38:06Z</time>
  <cmt>extensions = 1.43</cmt>
    </trkpt>
    <trkpt lat="28.09747" lon="-15.570275">
    <time>1971-01-13T13:38:11Z</time>
  <cmt>extensions = 1.09</cmt>
    </trkpt>
    <trkpt lat="28.097515" lon="-15.570291">
    <time>1971-01-13T13:38:16Z</time>
  <cmt>extensions = 1.31</cmt>
    </trkpt>
    <trkpt lat="28.097588" lon="-15.570282">
    <time>1971-01-13T13:38:23Z</time>
  <cmt>extensions = 1.27</cmt>
    </trkpt>
    <trkpt lat="28.097668" lon="-15.570267">
    <time>1971-01-13T13:38:31Z</time>
  <cmt>extensions = 1.29</cmt>
    </trkpt>
    <trkpt lat="28.09774" lon="-15.570281">
    <time>1971-01-13T13:38:38Z</time>
  <cmt>extensions = 1.16</cmt>
    </trkpt>
    <trkpt lat="28.097915" lon="-15.570416">
    <time>1971-01-13T13:38:59Z</time>
  <cmt>extensions = 1.68</cmt>
    </trkpt>
    <trkpt lat="28.098014" lon="-15.570553">
    <time>1971-01-13T13:39:15Z</time>
  <cmt>extensions = 1.58</cmt>
    </trkpt>
    <trkpt lat="28.098069" lon="-15.570573">
    <time>1971-01-13T13:39:21Z</time>
  <cmt>extensions = 1.61</cmt>
    </trkpt>
    <trkpt lat="28.098156" lon="-15.570594">
    <time>1971-01-13T13:39:30Z</time>
  <cmt>extensions = 1.65</cmt>
    </trkpt>
    <trkpt lat="28.098235" lon="-15.570656">
    <time>1971-01-13T13:39:39Z</time>
  <cmt>extensions = 1.53</cmt>
    </trkpt>
    <trkpt lat="28.09836" lon="-15.570855">
    <time>1971-01-13T13:40:01Z</time>
  <cmt>extensions = 1.42</cmt>
    </trkpt>
    <trkpt lat="28.098443" lon="-15.570814">
    <time>1971-01-13T13:40:10Z</time>
  <cmt>extensions = 1.12</cmt>
    </trkpt>
    <trkpt lat="28.098616" lon="-15.570756">
    <time>1971-01-13T13:40:28Z</time>
  <cmt>extensions = 1.21</cmt>
    </trkpt>
    <trkpt lat="28.098515" lon="-15.570701">
    <time>1971-01-13T13:40:39Z</time>
  <cmt>extensions = 1.45</cmt>
    </trkpt>
    <trkpt lat="28.098445" lon="-15.570667">
    <time>1971-01-13T13:40:47Z</time>
  <cmt>extensions = 1.41</cmt>
    </trkpt>
    <trkpt lat="28.098427" lon="-15.570591">
    <time>1971-01-13T13:40:54Z</time>
  <cmt>extensions = 1.24</cmt>
    </trkpt>
    <trkpt lat="28.098491" lon="-15.570549">
    <time>1971-01-13T13:41:01Z</time>
  <cmt>extensions = 0.91</cmt>
    </trkpt>
    <trkpt lat="28.098512" lon="-15.570494">
    <time>1971-01-13T13:41:06Z</time>
  <cmt>extensions = 1.00</cmt>
    </trkpt>
    <trkpt lat="28.098457" lon="-15.570422">
    <time>1971-01-13T13:41:15Z</time>
  <cmt>extensions = 1.34</cmt>
    </trkpt>
    <trkpt lat="28.098365" lon="-15.570293">
    <time>1971-01-13T13:41:29Z</time>
  <cmt>extensions = 1.36</cmt>
    </trkpt>
    <trkpt lat="28.098428" lon="-15.570193">
    <time>1971-01-13T13:41:40Z</time>
  <cmt>extensions = 1.10</cmt>
    </trkpt>
    <trkpt lat="28.098556" lon="-15.5701">
    <time>1971-01-13T13:41:55Z</time>
  <cmt>extensions = 1.41</cmt>
    </trkpt>
    <trkpt lat="28.098599" lon="-15.569937">
    <time>1971-01-13T13:42:10Z</time>
  <cmt>extensions = 1.52</cmt>
    </trkpt>
    <trkpt lat="28.098624" lon="-15.569757">
    <time>1971-01-13T13:42:26Z</time>
  <cmt>extensions = 1.38</cmt>
    </trkpt>
    <trkpt lat="28.098605" lon="-15.569552">
    <time>1971-01-13T13:42:44Z</time>
  <cmt>extensions = 1.44</cmt>
    </trkpt>
    <trkpt lat="28.098619" lon="-15.569119">
    <time>1971-01-13T13:43:23Z</time>
  <cmt>extensions = 1.47</cmt>
    </trkpt>
    <trkpt lat="28.098605" lon="-15.56896">
    <time>1971-01-13T13:43:37Z</time>
  <cmt>extensions = 1.19</cmt>
    </trkpt>
    <trkpt lat="28.098593" lon="-15.568678">
    <time>1971-01-13T13:44:02Z</time>
  <cmt>extensions = 1.29</cmt>
    </trkpt>
    <trkpt lat="28.0986" lon="-15.568624">
    <time>1971-01-13T13:44:07Z</time>
  <cmt>extensions = 1.79</cmt>
    </trkpt>
    <trkpt lat="28.098606" lon="-15.568562">
    <time>1971-01-13T13:44:12Z</time>
  <cmt>extensions = 0.86</cmt>
    </trkpt>
    <trkpt lat="28.098591" lon="-15.568496">
    <time>1971-01-13T13:44:18Z</time>
  <cmt>extensions = 1.67</cmt>
    </trkpt>
    <trkpt lat="28.098547" lon="-15.568368">
    <time>1971-01-13T13:44:30Z</time>
  <cmt>extensions = 1.35</cmt>
    </trkpt>
    <trkpt lat="28.098477" lon="-15.568205">
    <time>1971-01-13T13:44:46Z</time>
  <cmt>extensions = 1.37</cmt>
    </trkpt>
    <trkpt lat="28.098445" lon="-15.568084">
    <time>1971-01-13T13:44:57Z</time>
  <cmt>extensions = 1.38</cmt>
    </trkpt>
    <trkpt lat="28.098468" lon="-15.567798">
    <time>1971-01-13T13:45:23Z</time>
  <cmt>extensions = 0.85</cmt>
    </trkpt>
    <trkpt lat="28.098416" lon="-15.567668">
    <time>1971-01-13T13:45:35Z</time>
  <cmt>extensions = 1.08</cmt>
    </trkpt>
    <trkpt lat="28.098415" lon="-15.567397">
    <time>1971-01-13T13:45:59Z</time>
  <cmt>extensions = 0.39</cmt>
    </trkpt>
    <trkpt lat="28.098463" lon="-15.56739">
    <time>1971-01-13T13:46:04Z</time>
  <cmt>extensions = 1.15</cmt>
    </trkpt>
    <trkpt lat="28.098558" lon="-15.567364">
    <time>1971-01-13T13:46:14Z</time>
  <cmt>extensions = 3.63</cmt>
    </trkpt>
    <trkpt lat="28.09872" lon="-15.56752">
    <time>1971-01-13T13:46:35Z</time>
  <cmt>extensions = 1.30</cmt>
    </trkpt>
    <trkpt lat="28.098863" lon="-15.567675">
    <time>1971-01-13T13:46:55Z</time>
  <cmt>extensions = 1.76</cmt>
    </trkpt>
    <trkpt lat="28.09893" lon="-15.567697">
    <time>1971-01-13T13:47:02Z</time>
  <cmt>extensions = 1.55</cmt>
    </trkpt>
    <trkpt lat="28.099087" lon="-15.567714">
    <time>1971-01-13T13:47:18Z</time>
  <cmt>extensions = 1.25</cmt>
    </trkpt>
    <trkpt lat="28.099215" lon="-15.567795">
    <time>1971-01-13T13:47:32Z</time>
  <cmt>extensions = 1.36</cmt>
    </trkpt>
    <trkpt lat="28.099221" lon="-15.5679">
    <time>1971-01-13T13:47:42Z</time>
  <cmt>extensions = 0.94</cmt>
    </trkpt>
    <trkpt lat="28.099246" lon="-15.567945">
    <time>1971-01-13T13:47:46Z</time>
  <cmt>extensions = 0.10</cmt>
    </trkpt>
    <trkpt lat="28.099279" lon="-15.567772">
    <time>1971-01-13T13:48:02Z</time>
  <cmt>extensions = 2.07</cmt>
    </trkpt>
    <trkpt lat="28.099322" lon="-15.56775">
    <time>1971-01-13T13:48:07Z</time>
  <cmt>extensions = 0.38</cmt>
    </trkpt>
    <trkpt lat="28.099402" lon="-15.567778">
    <time>1971-01-13T13:48:15Z</time>
  <cmt>extensions = 3.11</cmt>
    </trkpt>
    <trkpt lat="28.099598" lon="-15.567785">
    <time>1971-01-13T13:48:34Z</time>
  <cmt>extensions = 5.46</cmt>
    </trkpt>
    <trkpt lat="28.099686" lon="-15.567784">
    <time>1971-01-13T13:48:43Z</time>
  <cmt>extensions = 4.90</cmt>
    </trkpt>
    <trkpt lat="28.099874" lon="-15.567885">
    <time>1971-01-13T13:49:04Z</time>
  <cmt>extensions = 5.79</cmt>
    </trkpt>
    <trkpt lat="28.100315" lon="-15.568071">
    <time>1971-01-13T13:49:51Z</time>
  <cmt>extensions = 5.24</cmt>
    </trkpt>
    <trkpt lat="28.100364" lon="-15.568055">
    <time>1971-01-13T13:49:56Z</time>
  <cmt>extensions = 5.68</cmt>
    </trkpt>
    <trkpt lat="28.101006" lon="-15.567678">
    <time>1971-01-13T13:51:08Z</time>
  <cmt>extensions = 8.05</cmt>
    </trkpt>
    <trkpt lat="28.101118" lon="-15.567634">
    <time>1971-01-13T13:51:20Z</time>
  <cmt>extensions = 13.20</cmt>
    </trkpt>
    <trkpt lat="28.102535" lon="-15.567553">
    <time>1971-01-13T13:53:42Z</time>
  <cmt>extensions = 14.36</cmt>
    </trkpt>
    <trkpt lat="28.102747" lon="-15.56756">
    <time>1971-01-13T13:54:03Z</time>
  <cmt>extensions = 11.81</cmt>
    </trkpt>
    <trkpt lat="28.103208" lon="-15.566874">
    <time>1971-01-13T13:55:19Z</time>
  <cmt>extensions = 0.00</cmt>
    </trkpt>
    <trkpt lat="28.103015" lon="-15.567153">
    <time>1971-01-13T13:55:50Z</time>
    </trkpt>
    <trkpt lat="28.102472" lon="-15.567188">
    <time>1971-01-13T13:56:44Z</time>
    </trkpt>
    <trkpt lat="28.102154" lon="-15.567276">
    <time>1971-01-13T13:57:17Z</time>
    </trkpt>
    <trkpt lat="28.101263" lon="-15.567356">
    <time>1971-01-13T13:58:46Z</time>
    </trkpt>
    <trkpt lat="28.10082" lon="-15.567475">
    <time>1971-01-13T13:59:32Z</time>
    </trkpt>
    <trkpt lat="28.100016" lon="-15.567611">
    <time>1971-01-13T14:00:53Z</time>
    </trkpt>
    <trkpt lat="28.099826" lon="-15.567625">
    <time>1971-01-13T14:01:12Z</time>
    </trkpt>
    <trkpt lat="28.099203" lon="-15.567243">
    <time>1971-01-13T14:02:22Z</time>
  <cmt>extensions = 13.14</cmt>
    </trkpt>
    <trkpt lat="28.099009" lon="-15.566989">
    <time>1971-01-13T14:02:52Z</time>
  <cmt>extensions = 8.25</cmt>
    </trkpt>
    <trkpt lat="28.098823" lon="-15.566319">
    <time>1971-01-13T14:03:54Z</time>
  <cmt>extensions = 5.23</cmt>
    </trkpt>
    <trkpt lat="28.098403" lon="-15.566258">
    <time>1971-01-13T14:04:36Z</time>
  <cmt>extensions = 5.24</cmt>
    </trkpt>
    <trkpt lat="28.098181" lon="-15.566447">
    <time>1971-01-13T14:05:04Z</time>
  <cmt>extensions = 1.19</cmt>
    </trkpt>
    <trkpt lat="28.097967" lon="-15.566562">
    <time>1971-01-13T14:05:28Z</time>
  <cmt>extensions = 3.30</cmt>
    </trkpt>
    <trkpt lat="28.097529" lon="-15.56667">
    <time>1971-01-13T14:06:12Z</time>
  <cmt>extensions = 8.32</cmt>
    </trkpt>
    <trkpt lat="28.097109" lon="-15.566827">
    <time>1971-01-13T14:06:57Z</time>
  <cmt>extensions = 9.85</cmt>
    </trkpt>
    <trkpt lat="28.096775" lon="-15.5671">
    <time>1971-01-13T14:07:38Z</time>
  <cmt>extensions = 9.17</cmt>
    </trkpt>
    <trkpt lat="28.096178" lon="-15.567244">
    <time>1971-01-13T14:08:39Z</time>
  <cmt>extensions = 11.32</cmt>
    </trkpt>
    <trkpt lat="28.095901" lon="-15.567144">
    <time>1971-01-13T14:09:08Z</time>
  <cmt>extensions = 10.79</cmt>
    </trkpt>
    <trkpt lat="28.095662" lon="-15.567012">
    <time>1971-01-13T14:09:34Z</time>
  <cmt>extensions = 9.94</cmt>
    </trkpt>
    <trkpt lat="28.095124" lon="-15.566665">
    <time>1971-01-13T14:10:36Z</time>
  <cmt>extensions = 11.48</cmt>
    </trkpt>
    <trkpt lat="28.094428" lon="-15.56669">
    <time>1971-01-13T14:11:45Z</time>
  <cmt>extensions = 11.07</cmt>
    </trkpt>
    <trkpt lat="28.093762" lon="-15.567291">
    <time>1971-01-13T14:13:10Z</time>
  <cmt>extensions = 6.98</cmt>
    </trkpt>
    <trkpt lat="28.093382" lon="-15.567198">
    <time>1971-01-13T14:13:49Z</time>
  <cmt>extensions = 4.02</cmt>
    </trkpt>
    <trkpt lat="28.093114" lon="-15.567095">
    <time>1971-01-13T14:14:17Z</time>
  <cmt>extensions = 6.30</cmt>
    </trkpt>
    <trkpt lat="28.092995" lon="-15.567076">
    <time>1971-01-13T14:14:29Z</time>
  <cmt>extensions = 0.33</cmt>
    </trkpt>
    <trkpt lat="28.092915" lon="-15.567049">
    <time>1971-01-13T14:14:38Z</time>
  <cmt>extensions = 0.77</cmt>
    </trkpt>
    <trkpt lat="28.092504" lon="-15.567137">
    <time>1971-01-13T14:15:19Z</time>
  <cmt>extensions = 6.65</cmt>
    </trkpt>
    <trkpt lat="28.092438" lon="-15.567202">
    <time>1971-01-13T14:15:28Z</time>
  <cmt>extensions = 4.87</cmt>
    </trkpt>
    <trkpt lat="28.092199" lon="-15.567349">
    <time>1971-01-13T14:15:55Z</time>
  <cmt>extensions = 3.02</cmt>
    </trkpt>
    <trkpt lat="28.09199" lon="-15.567349">
    <time>1971-01-13T14:16:16Z</time>
  <cmt>extensions = 7.76</cmt>
    </trkpt>
    <trkpt lat="28.09141" lon="-15.567119">
    <time>1971-01-13T14:17:18Z</time>
  <cmt>extensions = 12.08</cmt>
    </trkpt>
    <trkpt lat="28.091134" lon="-15.566841">
    <time>1971-01-13T14:17:54Z</time>
  <cmt>extensions = 10.28</cmt>
    </trkpt>
    <trkpt lat="28.090695" lon="-15.566774">
    <time>1971-01-13T14:18:39Z</time>
  <cmt>extensions = 9.86</cmt>
    </trkpt>
    <trkpt lat="28.090479" lon="-15.566976">
    <time>1971-01-13T14:19:07Z</time>
  <cmt>extensions = 10.39</cmt>
    </trkpt>
    <trkpt lat="28.090287" lon="-15.567195">
    <time>1971-01-13T14:19:34Z</time>
  <cmt>extensions = 10.11</cmt>
    </trkpt>
    <trkpt lat="28.09051" lon="-15.567664">
    <time>1971-01-13T14:20:21Z</time>
  <cmt>extensions = 8.72</cmt>
    </trkpt>
    <trkpt lat="28.090808" lon="-15.567837">
    <time>1971-01-13T14:20:54Z</time>
  <cmt>extensions = 12.42</cmt>
    </trkpt>
    <trkpt lat="28.090896" lon="-15.567928">
    <time>1971-01-13T14:21:06Z</time>
  <cmt>extensions = 13.26</cmt>
    </trkpt>
    <trkpt lat="28.09179" lon="-15.569046">
    <time>1971-01-13T14:23:19Z</time>
  <cmt>extensions = 13.19</cmt>
    </trkpt>
    <trkpt lat="28.091629" lon="-15.569371">
    <time>1971-01-13T14:23:52Z</time>
  <cmt>extensions = 7.32</cmt>
    </trkpt>
    <trkpt lat="28.091322" lon="-15.569473">
    <time>1971-01-13T14:24:24Z</time>
  <cmt>extensions = 11.87</cmt>
    </trkpt>
    <trkpt lat="28.091121" lon="-15.569584">
    <time>1971-01-13T14:24:46Z</time>
  <cmt>extensions = 12.44</cmt>
    </trkpt>
    <trkpt lat="28.090961" lon="-15.569936">
    <time>1971-01-13T14:25:21Z</time>
  <cmt>extensions = 9.72</cmt>
    </trkpt>
    <trkpt lat="28.090815" lon="-15.570492">
    <time>1971-01-13T14:26:13Z</time>
  <cmt>extensions = 9.50</cmt>
    </trkpt>
    <trkpt lat="28.090387" lon="-15.570796">
    <time>1971-01-13T14:27:03Z</time>
  <cmt>extensions = 9.37</cmt>
    </trkpt>
    <trkpt lat="28.090162" lon="-15.570784">
    <time>1971-01-13T14:27:26Z</time>
  <cmt>extensions = 12.54</cmt>
    </trkpt>
    <trkpt lat="28.089815" lon="-15.570811">
    <time>1971-01-13T14:28:00Z</time>
  <cmt>extensions = 12.91</cmt>
    </trkpt>
    <trkpt lat="28.088801" lon="-15.571165">
    <time>1971-01-13T14:29:46Z</time>
  <cmt>extensions = 14.76</cmt>
    </trkpt>
    <trkpt lat="28.087578" lon="-15.571343">
    <time>1971-01-13T14:31:49Z</time>
  <cmt>extensions = 11.60</cmt>
    </trkpt>
    <trkpt lat="28.087175" lon="-15.571521">
    <time>1971-01-13T14:32:32Z</time>
  <cmt>extensions = 12.04</cmt>
    </trkpt>
    <trkpt lat="28.087054" lon="-15.571553">
    <time>1971-01-13T14:32:45Z</time>
  <cmt>extensions = 13.83</cmt>
    </trkpt>
    <trkpt lat="28.08681" lon="-15.571901">
    <time>1971-01-13T14:33:24Z</time>
  <cmt>extensions = 10.91</cmt>
    </trkpt>
    <trkpt lat="28.086641" lon="-15.57211">
    <time>1971-01-13T14:33:49Z</time>
  <cmt>extensions = 6.96</cmt>
    </trkpt>
    <trkpt lat="28.0863" lon="-15.572387">
    <time>1971-01-13T14:34:31Z</time>
  <cmt>extensions = 9.34</cmt>
    </trkpt>
    <trkpt lat="28.08582" lon="-15.572661">
    <time>1971-01-13T14:35:25Z</time>
  <cmt>extensions = 8.55</cmt>
    </trkpt>
    <trkpt lat="28.085701" lon="-15.572651">
    <time>1971-01-13T14:35:36Z</time>
  <cmt>extensions = 13.28</cmt>
    </trkpt>
    <trkpt lat="28.085216" lon="-15.57238">
    <time>1971-01-13T14:36:30Z</time>
  <cmt>extensions = 12.23</cmt>
    </trkpt>
    <trkpt lat="28.084865" lon="-15.572245">
    <time>1971-01-13T14:37:07Z</time>
  <cmt>extensions = 10.32</cmt>
    </trkpt>
    <trkpt lat="28.084325" lon="-15.572422">
    <time>1971-01-13T14:38:03Z</time>
  <cmt>extensions = 0.61</cmt>
    </trkpt>
    <trkpt lat="28.08413" lon="-15.572431">
    <time>1971-01-13T14:38:23Z</time>
  <cmt>extensions = 2.41</cmt>
    </trkpt>
    <trkpt lat="28.083646" lon="-15.572504">
    <time>1971-01-13T14:39:12Z</time>
  <cmt>extensions = 9.06</cmt>
    </trkpt>
    <trkpt lat="28.083448" lon="-15.572624">
    <time>1971-01-13T14:39:34Z</time>
  <cmt>extensions = 8.33</cmt>
    </trkpt>
    <trkpt lat="28.083157" lon="-15.572725">
    <time>1971-01-13T14:40:04Z</time>
  <cmt>extensions = 5.65</cmt>
    </trkpt>
    <trkpt lat="28.082827" lon="-15.572687">
    <time>1971-01-13T14:40:38Z</time>
  <cmt>extensions = 3.60</cmt>
    </trkpt>
    <trkpt lat="28.082475" lon="-15.572797">
    <time>1971-01-13T14:41:14Z</time>
  <cmt>extensions = 6.77</cmt>
    </trkpt>
    <trkpt lat="28.082001" lon="-15.573238">
    <time>1971-01-13T14:42:15Z</time>
  <cmt>extensions = 6.09</cmt>
    </trkpt>
    <trkpt lat="28.081953" lon="-15.573365">
    <time>1971-01-13T14:42:27Z</time>
  <cmt>extensions = 4.52</cmt>
    </trkpt>
    <trkpt lat="28.08195" lon="-15.574073">
    <time>1971-01-13T14:43:30Z</time>
  <cmt>extensions = 5.79</cmt>
    </trkpt>
    <trkpt lat="28.082039" lon="-15.575154">
    <time>1971-01-13T14:45:06Z</time>
  <cmt>extensions = 7.62</cmt>
    </trkpt>
    <trkpt lat="28.081928" lon="-15.575545">
    <time>1971-01-13T14:45:42Z</time>
  <cmt>extensions = 6.72</cmt>
    </trkpt>
    <trkpt lat="28.081395" lon="-15.575637">
    <time>1971-01-13T14:46:36Z</time>
  <cmt>extensions = 8.57</cmt>
    </trkpt>
    <trkpt lat="28.081095" lon="-15.57559">
    <time>1971-01-13T14:47:06Z</time>
  <cmt>extensions = 8.43</cmt>
    </trkpt>
    <trkpt lat="28.080983" lon="-15.575452">
    <time>1971-01-13T14:47:23Z</time>
  <cmt>extensions = 9.21</cmt>
    </trkpt>
    <trkpt lat="28.080931" lon="-15.575378">
    <time>1971-01-13T14:47:31Z</time>
  <cmt>extensions = 9.29</cmt>
    </trkpt>
    <trkpt lat="28.080403" lon="-15.575099">
    <time>1971-01-13T14:48:29Z</time>
  <cmt>extensions = 9.26</cmt>
    </trkpt>
    <trkpt lat="28.080269" lon="-15.575125">
    <time>1971-01-13T14:48:43Z</time>
  <cmt>extensions = 7.57</cmt>
    </trkpt>
    <trkpt lat="28.080073" lon="-15.575234">
    <time>1971-01-13T14:49:05Z</time>
  <cmt>extensions = 8.10</cmt>
    </trkpt>
    <trkpt lat="28.079422" lon="-15.575751">
    <time>1971-01-13T14:50:24Z</time>
  <cmt>extensions = 0.05</cmt>
    </trkpt>
    <trkpt lat="28.079372" lon="-15.575778">
    <time>1971-01-13T14:50:30Z</time>
  <cmt>extensions = 0.26</cmt>
    </trkpt>
    <trkpt lat="28.079487" lon="-15.575582">
    <time>1971-01-13T14:50:50Z</time>
  <cmt>extensions = 2.64</cmt>
    </trkpt>
    <trkpt lat="28.079415" lon="-15.575758">
    <time>1971-01-13T14:51:08Z</time>
  <cmt>extensions = 2.52</cmt>
    </trkpt>
    <trkpt lat="28.079304" lon="-15.575927">
    <time>1971-01-13T14:51:26Z</time>
  <cmt>extensions = 3.45</cmt>
    </trkpt>
    <trkpt lat="28.079292" lon="-15.575997">
    <time>1971-01-13T14:51:32Z</time>
  <cmt>extensions = 0.14</cmt>
    </trkpt>
    <trkpt lat="28.078586" lon="-15.575952">
    <time>1971-01-13T14:52:43Z</time>
  <cmt>extensions = 8.75</cmt>
    </trkpt>
    <trkpt lat="28.078271" lon="-15.575952">
    <time>1971-01-13T14:53:14Z</time>
  <cmt>extensions = 8.77</cmt>
    </trkpt>
    <trkpt lat="28.078042" lon="-15.576017">
    <time>1971-01-13T14:53:38Z</time>
  <cmt>extensions = 5.26</cmt>
    </trkpt>
    <trkpt lat="28.077795" lon="-15.576143">
    <time>1971-01-13T14:54:05Z</time>
  <cmt>extensions = 5.03</cmt>
    </trkpt>
    <trkpt lat="28.077678" lon="-15.576155">
    <time>1971-01-13T14:54:17Z</time>
  <cmt>extensions = 4.36</cmt>
    </trkpt>
    <trkpt lat="28.077162" lon="-15.57602">
    <time>1971-01-13T14:55:09Z</time>
  <cmt>extensions = 2.58</cmt>
    </trkpt>
    <trkpt lat="28.077139" lon="-15.576025">
    <time>1971-01-13T14:55:12Z</time>
  <cmt>extensions = 0.23</cmt>
    </trkpt>
  </trkseg>
</trk>
</gpx>
